createdAt,value
2022-12-08T10:54:55.606Z,19.7
2022-12-08T10:57:55.816Z,17.3
2022-12-08T11:00:56.107Z,15
2022-12-08T11:03:51.315Z,12.2
2022-12-08T11:06:51.499Z,9.3
2022-12-08T11:09:51.771Z,6.4
2022-12-08T11:12:51.970Z,3.6
2022-12-08T11:15:52.182Z,0.8
2022-12-08T11:18:52.431Z,0.8
2022-12-08T11:21:52.639Z,0.8
2022-12-08T11:24:52.870Z,0.8
2022-12-08T11:27:53.124Z,0.8
2022-12-08T11:30:53.319Z,0.8
2022-12-08T11:33:53.579Z,0.8
2022-12-08T11:36:53.769Z,0.8
2022-12-08T11:39:54.052Z,0.8
2022-12-08T11:42:54.230Z,0.8
2022-12-08T11:45:54.612Z,0.8
2022-12-08T11:48:54.689Z,0.8
2022-12-08T11:51:54.983Z,0.8
2022-12-08T11:54:55.154Z,0.8
2022-12-08T11:57:55.471Z,0.8
2022-12-08T12:00:55.621Z,0.8
2022-12-08T12:03:55.854Z,0.8
2022-12-08T12:06:56.073Z,0.8
2022-12-08T12:09:51.318Z,0.8
2022-12-08T12:12:51.509Z,0.8
2022-12-08T12:15:51.739Z,0.8
2022-12-08T12:18:51.991Z,0.8
2022-12-08T12:21:52.195Z,0.8
2022-12-08T12:24:52.446Z,0.8
2022-12-08T12:27:57.224Z,0.8
2022-12-08T12:30:52.938Z,0.8
2022-12-08T12:33:53.127Z,0.8
2022-12-08T12:36:53.324Z,0.8
2022-12-08T12:39:53.579Z,0.8
2022-12-08T12:42:53.776Z,0.8
2022-12-08T13:03:55.370Z,0.8
2022-12-08T13:06:55.617Z,1
2022-12-08T13:09:55.826Z,1.1
2022-12-08T13:12:56.064Z,1.1
2022-12-08T13:15:51.288Z,1.1
2022-12-08T13:18:56.533Z,1.1
2022-12-08T13:21:51.752Z,1.1
2022-12-08T13:24:51.999Z,1.1
2022-12-08T13:27:52.194Z,1.1
2022-12-08T13:30:52.439Z,1.1
2022-12-08T13:33:52.700Z,1.1
2022-12-08T13:36:52.901Z,1.1
2022-12-08T13:39:53.125Z,1.1
2022-12-08T13:42:53.331Z,1.1
2022-12-08T13:50:30.704Z,1.1
2022-12-08T13:57:54.538Z,1.1
2022-12-08T14:00:54.678Z,1.1
2022-12-08T14:04:31.071Z,1.1
2022-12-08T14:06:55.115Z,1.1
2022-12-08T14:09:55.364Z,1.1
2022-12-08T14:12:55.572Z,1.1
2022-12-08T14:15:55.859Z,1.1
2022-12-08T14:18:51.012Z,1.1
2022-12-08T18:06:53.338Z,4.1
2022-12-08T18:09:53.681Z,6.8
2022-12-08T18:12:53.898Z,6.8
2022-12-08T18:15:54.029Z,6.8
2022-12-08T18:18:54.279Z,6.8
2022-12-08T18:21:54.506Z,6.8
2022-12-08T18:24:54.731Z,6.8
2022-12-08T18:27:54.934Z,6.8
2022-12-08T18:30:55.275Z,6.8
2022-12-08T18:33:55.411Z,6.8
2022-12-08T18:36:55.649Z,6.8
2022-12-08T18:39:55.874Z,6.8
2022-12-08T18:42:56.109Z,9.7
2022-12-08T18:45:51.343Z,12.4
2022-12-08T18:48:51.564Z,15.1
2022-12-08T18:51:51.761Z,17.9
2022-12-08T18:55:07.686Z,20.7
2022-12-08T18:57:52.282Z,23.4
2022-12-08T19:00:57.543Z,23.4
2022-12-08T19:04:19.831Z,23.4
2022-12-08T19:06:52.938Z,23.4
2022-12-08T19:09:53.135Z,23.4
2022-12-08T19:12:53.355Z,23.4
2022-12-08T19:15:53.788Z,23.4
2022-12-08T19:18:53.822Z,23.4
2022-12-08T19:21:54.079Z,23.4
2022-12-08T19:24:54.272Z,23.4
2022-12-08T19:27:54.522Z,23.4
2022-12-08T19:30:54.775Z,23.4
2022-12-08T19:33:55.032Z,23.4
2022-12-08T19:36:55.204Z,23.4
2022-12-08T19:39:55.416Z,23.4
2022-12-08T19:42:55.646Z,23.4
2022-12-08T19:45:56.011Z,23.4
2022-12-08T19:48:56.113Z,23.4
2022-12-08T19:51:51.291Z,23.4
2022-12-08T19:54:51.572Z,23.4
2022-12-08T19:57:51.772Z,23.4
